sensor_id;sensor_type;location;lat;lon;timestamp;pressure;altitude;pressure_sealevel;temperature;humidity
12624;BME280;6377;42.836;23.998;2023-02-28T00:01:11;96234.78;;;6.37;100.00
12624;BME280;6377;42.836;23.998;2023-02-28T00:03:39;96083.44;;;5.31;100.00
12624;BME280;6377;42.836;23.998;2023-02-28T00:06:07;96241.84;;;6.27;100.00
12624;BME280;6377;42.836;23.998;2023-02-28T00:08:35;96250.69;;;6.26;100.00
12624;BME280;6377;42.836;23.998;2023-02-28T00:11:05;96243.06;;;6.23;100.00
12624;BME280;6377;42.836;23.998;2023-02-28T00:13:35;96230.22;;;6.20;100.00
12624;BME280;6377;42.836;23.998;2023-02-28T00:16:05;96229.53;;;6.18;100.00
12624;BME280;6377;42.836;23.998;2023-02-28T00:18:33;96245.00;;;6.40;100.00
12624;BME280;6377;42.836;23.998;2023-02-28T00:21:00;96252.34;;;6.46;100.00
12624;BME280;6377;42.836;23.998;2023-02-28T00:23:28;96247.78;;;6.48;100.00
12624;BME280;6377;42.836;23.998;2023-02-28T00:25:55;96248.59;;;6.58;100.00
12624;BME280;6377;42.836;23.998;2023-02-28T00:28:24;96253.28;;;6.64;100.00
12624;BME280;6377;42.836;23.998;2023-02-28T00:30:52;96150.34;;;6.03;100.00
12624;BME280;6377;42.836;23.998;2023-02-28T00:33:20;96244.72;;;6.72;100.00
12624;BME280;6377;42.836;23.998;2023-02-28T00:35:47;96239.72;;;6.78;100.00
12624;BME280;6377;42.836;23.998;2023-02-28T00:38:15;96213.59;;;6.67;100.00
12624;BME280;6377;42.836;23.998;2023-02-28T00:40:43;96213.16;;;6.82;100.00
12624;BME280;6377;42.836;23.998;2023-02-28T00:43:10;96224.19;;;7.04;100.00
12624;BME280;6377;42.836;23.998;2023-02-28T00:45:39;96211.31;;;7.01;100.00
12624;BME280;6377;42.836;23.998;2023-02-28T00:48:06;96234.00;;;7.02;100.00
12624;BME280;6377;42.836;23.998;2023-02-28T00:50:33;96214.25;;;6.89;100.00
12624;BME280;6377;42.836;23.998;2023-02-28T00:53:01;96225.72;;;6.97;100.00
12624;BME280;6377;42.836;23.998;2023-02-28T00:55:28;96186.63;;;6.75;100.00
12624;BME280;6377;42.836;23.998;2023-02-28T00:57:55;96207.03;;;6.91;100.00
12624;BME280;6377;42.836;23.998;2023-02-28T01:00:22;96219.59;;;6.97;100.00
12624;BME280;6377;42.836;23.998;2023-02-28T01:02:51;96224.47;;;6.92;100.00
12624;BME280;6377;42.836;23.998;2023-02-28T01:05:18;96247.97;;;7.03;100.00
12624;BME280;6377;42.836;23.998;2023-02-28T01:07:46;96167.50;;;6.73;100.00
12624;BME280;6377;42.836;23.998;2023-02-28T01:10:13;96224.66;;;7.17;100.00
12624;BME280;6377;42.836;23.998;2023-02-28T01:12:40;96185.94;;;7.10;100.00
12624;BME280;6377;42.836;23.998;2023-02-28T01:15:10;96212.69;;;7.32;100.00
12624;BME280;6377;42.836;23.998;2023-02-28T01:17:37;96183.25;;;7.19;100.00
12624;BME280;6377;42.836;23.998;2023-02-28T01:20:07;96178.44;;;7.15;100.00
12624;BME280;6377;42.836;23.998;2023-02-28T01:22:35;96203.13;;;7.31;100.00
12624;BME280;6377;42.836;23.998;2023-02-28T01:25:03;96202.47;;;7.29;100.00
12624;BME280;6377;42.836;23.998;2023-02-28T01:27:30;96210.50;;;7.28;100.00
12624;BME280;6377;42.836;23.998;2023-02-28T01:29:58;96100.84;;;6.64;100.00
12624;BME280;6377;42.836;23.998;2023-02-28T01:32:25;96105.16;;;6.65;100.00
12624;BME280;6377;42.836;23.998;2023-02-28T01:34:52;96093.53;;;6.68;100.00
12624;BME280;6377;42.836;23.998;2023-02-28T01:37:21;96208.94;;;7.35;100.00
12624;BME280;6377;42.836;23.998;2023-02-28T01:39:48;96185.22;;;7.17;100.00
12624;BME280;6377;42.836;23.998;2023-02-28T01:42:16;96216.06;;;7.25;100.00
12624;BME280;6377;42.836;23.998;2023-02-28T01:44:59;96212.66;;;7.05;100.00
12624;BME280;6377;42.836;23.998;2023-02-28T01:47:29;96217.00;;;6.87;100.00
12624;BME280;6377;42.836;23.998;2023-02-28T01:49:58;96189.25;;;6.65;100.00
12624;BME280;6377;42.836;23.998;2023-02-28T01:52:30;96174.47;;;6.55;100.00
12624;BME280;6377;42.836;23.998;2023-02-28T01:55:00;96198.94;;;6.65;100.00
12624;BME280;6377;42.836;23.998;2023-02-28T01:57:32;96189.72;;;6.51;100.00
12624;BME280;6377;42.836;23.998;2023-02-28T02:00:07;96206.72;;;6.57;100.00
12624;BME280;6377;42.836;23.998;2023-02-28T02:02:39;96208.50;;;6.47;100.00
12624;BME280;6377;42.836;23.998;2023-02-28T02:05:09;96217.34;;;6.55;100.00
12624;BME280;6377;42.836;23.998;2023-02-28T02:07:39;96125.88;;;5.93;100.00
12624;BME280;6377;42.836;23.998;2023-02-28T02:10:12;96237.25;;;6.58;100.00
12624;BME280;6377;42.836;23.998;2023-02-28T02:12:55;96219.69;;;6.49;100.00
12624;BME280;6377;42.836;23.998;2023-02-28T02:15:29;96210.56;;;6.53;100.00
12624;BME280;6377;42.836;23.998;2023-02-28T02:18:03;96224.25;;;6.56;100.00
12624;BME280;6377;42.836;23.998;2023-02-28T02:21:04;96220.69;;;6.57;100.00
12624;BME280;6377;42.836;23.998;2023-02-28T02:24:28;96217.22;;;6.47;100.00
12624;BME280;6377;42.836;23.998;2023-02-28T02:27:20;96165.38;;;6.11;100.00
12624;BME280;6377;42.836;23.998;2023-02-28T02:33:05;96229.53;;;6.47;100.00
12624;BME280;6377;42.836;23.998;2023-02-28T02:35:40;96207.81;;;6.26;100.00
12624;BME280;6377;42.836;23.998;2023-02-28T02:38:18;96216.13;;;6.21;100.00
12624;BME280;6377;42.836;23.998;2023-02-28T02:40:55;96222.75;;;6.06;100.00
12624;BME280;6377;42.836;23.998;2023-02-28T02:43:29;96081.75;;;5.11;100.00
12624;BME280;6377;42.836;23.998;2023-02-28T02:46:02;96229.50;;;5.99;100.00
12624;BME280;6377;42.836;23.998;2023-02-28T02:48:33;96212.50;;;5.93;100.00
12624;BME280;6377;42.836;23.998;2023-02-28T02:51:09;96259.94;;;6.11;100.00
12624;BME280;6377;42.836;23.998;2023-02-28T02:53:42;96159.41;;;5.51;100.00
12624;BME280;6377;42.836;23.998;2023-02-28T02:56:12;96280.28;;;6.18;100.00
12624;BME280;6377;42.836;23.998;2023-02-28T02:58:42;96233.53;;;6.12;100.00
12624;BME280;6377;42.836;23.998;2023-02-28T03:01:14;96260.25;;;6.27;100.00
12624;BME280;6377;42.836;23.998;2023-02-28T03:03:42;96265.50;;;6.27;100.00
12624;BME280;6377;42.836;23.998;2023-02-28T03:06:11;96291.19;;;6.24;100.00
12624;BME280;6377;42.836;23.998;2023-02-28T03:08:39;96243.66;;;6.07;100.00
12624;BME280;6377;42.836;23.998;2023-02-28T03:11:11;96261.75;;;6.20;100.00
12624;BME280;6377;42.836;23.998;2023-02-28T03:17:06;96269.63;;;6.20;100.00
12624;BME280;6377;42.836;23.998;2023-02-28T03:19:45;96264.53;;;6.28;100.00
12624;BME280;6377;42.836;23.998;2023-02-28T03:22:35;96262.31;;;6.33;100.00
12624;BME280;6377;42.836;23.998;2023-02-28T03:25:09;96267.44;;;6.25;100.00
12624;BME280;6377;42.836;23.998;2023-02-28T03:27:41;96273.63;;;6.24;100.00
12624;BME280;6377;42.836;23.998;2023-02-28T03:30:14;96245.00;;;5.92;100.00
12624;BME280;6377;42.836;23.998;2023-02-28T03:32:51;96271.13;;;6.03;100.00
12624;BME280;6377;42.836;23.998;2023-02-28T03:35:22;96244.00;;;5.84;100.00
12624;BME280;6377;42.836;23.998;2023-02-28T03:37:54;96264.91;;;6.04;100.00
12624;BME280;6377;42.836;23.998;2023-02-28T03:40:24;96216.88;;;5.74;100.00
12624;BME280;6377;42.836;23.998;2023-02-28T03:42:57;96228.25;;;5.93;100.00
12624;BME280;6377;42.836;23.998;2023-02-28T03:45:27;96232.16;;;5.89;100.00
12624;BME280;6377;42.836;23.998;2023-02-28T03:47:58;96226.34;;;5.95;100.00
12624;BME280;6377;42.836;23.998;2023-02-28T03:50:31;96272.09;;;6.31;100.00
12624;BME280;6377;42.836;23.998;2023-02-28T03:53:06;96235.63;;;6.09;100.00
12624;BME280;6377;42.836;23.998;2023-02-28T03:55:39;96278.78;;;6.45;100.00
12624;BME280;6377;42.836;23.998;2023-02-28T03:58:12;96248.03;;;6.16;100.00
12624;BME280;6377;42.836;23.998;2023-02-28T04:00:47;96235.88;;;6.06;100.00
12624;BME280;6377;42.836;23.998;2023-02-28T04:03:16;96221.06;;;5.86;100.00
12624;BME280;6377;42.836;23.998;2023-02-28T04:05:50;96207.41;;;5.92;100.00
12624;BME280;6377;42.836;23.998;2023-02-28T04:08:20;96296.06;;;6.47;100.00
12624;BME280;6377;42.836;23.998;2023-02-28T04:10:50;96259.66;;;6.24;100.00
12624;BME280;6377;42.836;23.998;2023-02-28T04:13:20;96309.59;;;6.52;100.00
12624;BME280;6377;42.836;23.998;2023-02-28T04:15:47;96170.06;;;5.79;100.00
12624;BME280;6377;42.836;23.998;2023-02-28T04:18:14;96309.59;;;6.62;100.00
12624;BME280;6377;42.836;23.998;2023-02-28T04:20:42;96256.63;;;6.18;100.00
12624;BME280;6377;42.836;23.998;2023-02-28T04:23:09;96268.09;;;6.17;100.00
12624;BME280;6377;42.836;23.998;2023-02-28T04:25:38;96262.00;;;6.17;100.00
12624;BME280;6377;42.836;23.998;2023-02-28T04:28:06;96314.72;;;6.44;100.00
12624;BME280;6377;42.836;23.998;2023-02-28T04:30:33;96257.16;;;6.03;100.00
12624;BME280;6377;42.836;23.998;2023-02-28T04:33:01;96279.28;;;6.19;100.00
12624;BME280;6377;42.836;23.998;2023-02-28T04:35:28;96254.38;;;5.85;100.00
12624;BME280;6377;42.836;23.998;2023-02-28T04:37:55;96331.41;;;6.14;100.00
12624;BME280;6377;42.836;23.998;2023-02-28T04:40:22;96275.16;;;5.68;100.00
12624;BME280;6377;42.836;23.998;2023-02-28T04:42:51;96260.47;;;5.55;100.00
12624;BME280;6377;42.836;23.998;2023-02-28T04:45:18;96273.78;;;5.63;100.00
12624;BME280;6377;42.836;23.998;2023-02-28T04:47:45;96284.59;;;5.80;100.00
12624;BME280;6377;42.836;23.998;2023-02-28T04:50:13;96315.34;;;6.08;100.00
12624;BME280;6377;42.836;23.998;2023-02-28T04:52:40;96261.53;;;5.83;100.00
12624;BME280;6377;42.836;23.998;2023-02-28T04:55:08;96230.97;;;5.73;100.00
12624;BME280;6377;42.836;23.998;2023-02-28T04:57:35;96261.56;;;6.02;100.00
12624;BME280;6377;42.836;23.998;2023-02-28T05:00:05;96293.81;;;6.14;100.00
12624;BME280;6377;42.836;23.998;2023-02-28T05:02:37;96317.88;;;6.19;100.00
12624;BME280;6377;42.836;23.998;2023-02-28T05:05:05;96271.19;;;5.83;100.00
12624;BME280;6377;42.836;23.998;2023-02-28T05:07:32;96291.28;;;5.93;100.00
12624;BME280;6377;42.836;23.998;2023-02-28T05:09:59;96315.22;;;6.09;100.00
12624;BME280;6377;42.836;23.998;2023-02-28T05:12:26;96325.59;;;6.11;100.00
12624;BME280;6377;42.836;23.998;2023-02-28T05:14:54;96306.06;;;5.94;100.00
12624;BME280;6377;42.836;23.998;2023-02-28T05:17:23;96323.50;;;6.05;100.00
12624;BME280;6377;42.836;23.998;2023-02-28T05:19:50;96325.84;;;6.08;100.00
12624;BME280;6377;42.836;23.998;2023-02-28T05:22:17;96332.66;;;6.20;100.00
12624;BME280;6377;42.836;23.998;2023-02-28T05:24:44;96151.03;;;5.18;100.00
12624;BME280;6377;42.836;23.998;2023-02-28T05:27:12;96330.03;;;6.20;100.00
12624;BME280;6377;42.836;23.998;2023-02-28T05:29:39;96232.25;;;5.78;100.00
12624;BME280;6377;42.836;23.998;2023-02-28T05:32:09;96345.56;;;6.61;100.00
12624;BME280;6377;42.836;23.998;2023-02-28T05:34:39;96345.59;;;6.71;100.00
12624;BME280;6377;42.836;23.998;2023-02-28T05:37:08;96344.63;;;6.72;100.00
12624;BME280;6377;42.836;23.998;2023-02-28T05:39:38;96246.28;;;6.07;100.00
12624;BME280;6377;42.836;23.998;2023-02-28T05:42:05;96366.91;;;6.78;100.00
12624;BME280;6377;42.836;23.998;2023-02-28T05:44:32;96192.44;;;5.73;100.00
12624;BME280;6377;42.836;23.998;2023-02-28T05:46:59;96357.22;;;6.68;100.00
12624;BME280;6377;42.836;23.998;2023-02-28T05:49:26;96355.53;;;6.58;100.00
12624;BME280;6377;42.836;23.998;2023-02-28T05:51:55;96361.75;;;6.66;100.00
12624;BME280;6377;42.836;23.998;2023-02-28T05:54:22;96363.69;;;6.64;100.00
12624;BME280;6377;42.836;23.998;2023-02-28T05:56:50;96230.16;;;5.72;100.00
12624;BME280;6377;42.836;23.998;2023-02-28T05:59:17;96220.38;;;5.84;100.00
12624;BME280;6377;42.836;23.998;2023-02-28T06:01:45;96360.78;;;6.67;100.00
12624;BME280;6377;42.836;23.998;2023-02-28T06:04:15;96358.16;;;6.67;100.00
12624;BME280;6377;42.836;23.998;2023-02-28T06:06:44;96365.38;;;6.65;100.00
12624;BME280;6377;42.836;23.998;2023-02-28T06:09:13;96350.44;;;6.66;100.00
12624;BME280;6377;42.836;23.998;2023-02-28T06:11:40;96308.22;;;6.48;100.00
12624;BME280;6377;42.836;23.998;2023-02-28T06:14:09;96281.13;;;6.38;100.00
12624;BME280;6377;42.836;23.998;2023-02-28T06:16:41;96268.66;;;6.21;100.00
12624;BME280;6377;42.836;23.998;2023-02-28T06:19:09;96362.59;;;6.76;100.00
12624;BME280;6377;42.836;23.998;2023-02-28T06:24:31;96194.19;;;5.53;100.00
12624;BME280;6377;42.836;23.998;2023-02-28T06:26:59;96341.84;;;6.64;100.00
12624;BME280;6377;42.836;23.998;2023-02-28T06:29:31;96218.94;;;5.70;100.00
12624;BME280;6377;42.836;23.998;2023-02-28T06:32:14;96200.38;;;5.52;100.00
12624;BME280;6377;42.836;23.998;2023-02-28T06:37:14;96211.00;;;5.41;100.00
12624;BME280;6377;42.836;23.998;2023-02-28T06:44:53;96321.06;;;6.32;100.00
12624;BME280;6377;42.836;23.998;2023-02-28T06:47:21;96181.84;;;5.35;100.00
12624;BME280;6377;42.836;23.998;2023-02-28T06:49:48;96370.06;;;6.62;100.00
12624;BME280;6377;42.836;23.998;2023-02-28T06:52:16;96318.53;;;6.11;100.00
12624;BME280;6377;42.836;23.998;2023-02-28T06:54:43;96323.81;;;6.21;100.00
12624;BME280;6377;42.836;23.998;2023-02-28T06:57:11;96393.84;;;6.70;100.00
12624;BME280;6377;42.836;23.998;2023-02-28T06:59:38;96390.94;;;6.63;100.00
12624;BME280;6377;42.836;23.998;2023-02-28T07:02:08;96373.13;;;6.57;100.00
12624;BME280;6377;42.836;23.998;2023-02-28T07:07:10;96290.91;;;6.07;100.00
12624;BME280;6377;42.836;23.998;2023-02-28T07:09:38;96244.78;;;5.75;100.00
12624;BME280;6377;42.836;23.998;2023-02-28T07:12:08;96360.06;;;6.46;100.00
12624;BME280;6377;42.836;23.998;2023-02-28T07:14:36;96417.81;;;6.86;100.00
12624;BME280;6377;42.836;23.998;2023-02-28T07:17:03;96422.38;;;6.94;100.00
12624;BME280;6377;42.836;23.998;2023-02-28T07:19:32;96280.44;;;6.36;100.00
12624;BME280;6377;42.836;23.998;2023-02-28T07:21:59;96205.19;;;5.97;100.00
12624;BME280;6377;42.836;23.998;2023-02-28T07:24:28;96378.66;;;6.93;100.00
12624;BME280;6377;42.836;23.998;2023-02-28T07:26:55;96349.16;;;6.70;100.00
12624;BME280;6377;42.836;23.998;2023-02-28T07:29:23;96337.00;;;6.59;100.00
12624;BME280;6377;42.836;23.998;2023-02-28T07:31:50;96346.38;;;6.81;100.00
12624;BME280;6377;42.836;23.998;2023-02-28T07:34:18;96375.72;;;6.96;100.00
12624;BME280;6377;42.836;23.998;2023-02-28T07:36:47;96416.84;;;6.97;100.00
12624;BME280;6377;42.836;23.998;2023-02-28T07:39:14;96395.66;;;7.08;100.00
12624;BME280;6377;42.836;23.998;2023-02-28T07:41:41;96352.38;;;6.93;100.00
12624;BME280;6377;42.836;23.998;2023-02-28T07:44:09;96355.53;;;6.96;100.00
12624;BME280;6377;42.836;23.998;2023-02-28T07:46:37;96378.78;;;7.01;100.00
12624;BME280;6377;42.836;23.998;2023-02-28T07:49:05;96319.72;;;6.57;100.00
12624;BME280;6377;42.836;23.998;2023-02-28T07:51:32;96395.38;;;7.11;100.00
12624;BME280;6377;42.836;23.998;2023-02-28T07:54:01;96345.44;;;6.92;100.00
12624;BME280;6377;42.836;23.998;2023-02-28T07:56:28;96356.63;;;7.13;100.00
12624;BME280;6377;42.836;23.998;2023-02-28T07:58:55;96375.56;;;7.26;100.00
12624;BME280;6377;42.836;23.998;2023-02-28T08:01:23;96382.06;;;7.31;100.00
12624;BME280;6377;42.836;23.998;2023-02-28T08:03:50;96351.78;;;7.08;100.00
12624;BME280;6377;42.836;23.998;2023-02-28T08:06:19;96382.50;;;7.27;100.00
12624;BME280;6377;42.836;23.998;2023-02-28T08:08:48;96386.78;;;7.28;100.00
12624;BME280;6377;42.836;23.998;2023-02-28T08:11:17;96390.41;;;7.27;100.00
12624;BME280;6377;42.836;23.998;2023-02-28T08:13:45;96376.97;;;7.20;100.00
12624;BME280;6377;42.836;23.998;2023-02-28T08:16:13;96392.59;;;7.41;100.00
12624;BME280;6377;42.836;23.998;2023-02-28T08:18:43;96381.50;;;7.38;100.00
12624;BME280;6377;42.836;23.998;2023-02-28T08:21:11;96347.63;;;7.25;100.00
12624;BME280;6377;42.836;23.998;2023-02-28T08:23:38;96394.09;;;7.53;100.00
12624;BME280;6377;42.836;23.998;2023-02-28T08:26:06;96325.88;;;7.13;100.00
12624;BME280;6377;42.836;23.998;2023-02-28T08:28:34;96381.47;;;7.57;100.00
12624;BME280;6377;42.836;23.998;2023-02-28T08:31:07;96369.75;;;7.32;100.00
12624;BME280;6377;42.836;23.998;2023-02-28T08:33:34;96392.59;;;7.41;100.00
12624;BME280;6377;42.836;23.998;2023-02-28T08:36:02;96389.69;;;7.44;100.00
12624;BME280;6377;42.836;23.998;2023-02-28T08:38:29;96388.94;;;7.52;100.00
12624;BME280;6377;42.836;23.998;2023-02-28T08:41:00;96386.19;;;7.63;100.00
12624;BME280;6377;42.836;23.998;2023-02-28T08:43:27;96363.63;;;7.41;100.00
12624;BME280;6377;42.836;23.998;2023-02-28T08:45:56;96384.34;;;7.63;100.00
12624;BME280;6377;42.836;23.998;2023-02-28T08:48:23;96391.97;;;7.66;100.00
12624;BME280;6377;42.836;23.998;2023-02-28T08:50:57;96371.47;;;7.60;100.00
12624;BME280;6377;42.836;23.998;2023-02-28T08:53:25;96392.75;;;7.86;100.00
12624;BME280;6377;42.836;23.998;2023-02-28T08:55:56;96393.25;;;7.53;100.00
12624;BME280;6377;42.836;23.998;2023-02-28T08:58:24;96411.94;;;7.59;100.00
12624;BME280;6377;42.836;23.998;2023-02-28T09:00:51;96298.09;;;6.72;100.00
12624;BME280;6377;42.836;23.998;2023-02-28T09:03:20;96270.34;;;6.60;100.00
12624;BME280;6377;42.836;23.998;2023-02-28T09:05:58;96419.44;;;7.54;100.00
12624;BME280;6377;42.836;23.998;2023-02-28T09:08:27;96390.50;;;7.45;100.00
12624;BME280;6377;42.836;23.998;2023-02-28T09:10:55;96315.28;;;6.76;100.00
12624;BME280;6377;42.836;23.998;2023-02-28T09:13:23;96389.41;;;7.28;100.00
12624;BME280;6377;42.836;23.998;2023-02-28T09:15:51;96380.44;;;7.21;100.00
12624;BME280;6377;42.836;23.998;2023-02-28T09:18:20;96403.78;;;7.43;100.00
12624;BME280;6377;42.836;23.998;2023-02-28T09:20:48;96186.69;;;5.98;100.00
12624;BME280;6377;42.836;23.998;2023-02-28T09:23:16;96262.56;;;6.49;100.00
12624;BME280;6377;42.836;23.998;2023-02-28T09:25:53;96388.31;;;7.30;100.00
12624;BME280;6377;42.836;23.998;2023-02-28T09:28:21;96223.03;;;6.32;100.00
12624;BME280;6377;42.836;23.998;2023-02-28T09:30:50;96296.47;;;6.52;100.00
12624;BME280;6377;42.836;23.998;2023-02-28T09:33:20;96210.03;;;5.92;100.00
12624;BME280;6377;42.836;23.998;2023-02-28T09:35:48;96397.50;;;7.07;100.00
12624;BME280;6377;42.836;23.998;2023-02-28T09:38:16;96372.13;;;7.06;100.00
12624;BME280;6377;42.836;23.998;2023-02-28T09:40:48;96291.47;;;6.59;100.00
12624;BME280;6377;42.836;23.998;2023-02-28T09:43:17;96353.44;;;7.00;100.00
12624;BME280;6377;42.836;23.998;2023-02-28T09:45:51;96326.06;;;6.73;100.00
12624;BME280;6377;42.836;23.998;2023-02-28T09:48:29;96403.28;;;7.20;100.00
12624;BME280;6377;42.836;23.998;2023-02-28T09:51:03;96359.00;;;6.87;100.00
12624;BME280;6377;42.836;23.998;2023-02-28T09:53:33;96386.22;;;7.34;100.00
12624;BME280;6377;42.836;23.998;2023-02-28T09:56:03;96307.53;;;6.56;100.00
12624;BME280;6377;42.836;23.998;2023-02-28T09:58:35;96357.75;;;7.01;100.00
12624;BME280;6377;42.836;23.998;2023-02-28T10:01:10;96395.78;;;7.35;100.00
12624;BME280;6377;42.836;23.998;2023-02-28T10:03:44;96346.69;;;7.07;100.00
12624;BME280;6377;42.836;23.998;2023-02-28T10:06:15;96235.06;;;6.25;100.00
12624;BME280;6377;42.836;23.998;2023-02-28T10:08:53;96382.03;;;7.51;100.00
12624;BME280;6377;42.836;23.998;2023-02-28T10:11:23;96291.63;;;6.86;100.00
12624;BME280;6377;42.836;23.998;2023-02-28T10:13:54;96311.09;;;7.12;100.00
12624;BME280;6377;42.836;23.998;2023-02-28T10:16:31;96283.56;;;7.07;100.00
12624;BME280;6377;42.836;23.998;2023-02-28T10:19:08;96361.53;;;7.54;100.00
12624;BME280;6377;42.836;23.998;2023-02-28T10:21:41;96326.91;;;7.49;100.00
12624;BME280;6377;42.836;23.998;2023-02-28T10:24:46;96387.63;;;7.84;100.00
12624;BME280;6377;42.836;23.998;2023-02-28T10:27:19;96389.47;;;7.74;100.00
12624;BME280;6377;42.836;23.998;2023-02-28T10:29:49;96394.66;;;7.57;100.00
12624;BME280;6377;42.836;23.998;2023-02-28T10:32:18;96370.69;;;7.41;100.00
12624;BME280;6377;42.836;23.998;2023-02-28T10:34:51;96348.03;;;7.20;100.00
12624;BME280;6377;42.836;23.998;2023-02-28T10:37:19;96331.97;;;7.23;100.00
12624;BME280;6377;42.836;23.998;2023-02-28T10:39:46;96347.75;;;7.23;100.00
12624;BME280;6377;42.836;23.998;2023-02-28T10:42:24;96373.44;;;7.49;100.00
12624;BME280;6377;42.836;23.998;2023-02-28T10:45:07;96347.44;;;7.36;100.00
12624;BME280;6377;42.836;23.998;2023-02-28T10:47:48;96360.28;;;7.49;100.00
12624;BME280;6377;42.836;23.998;2023-02-28T10:50:35;96364.47;;;7.42;100.00
12624;BME280;6377;42.836;23.998;2023-02-28T10:53:16;96338.84;;;7.34;100.00
12624;BME280;6377;42.836;23.998;2023-02-28T10:55:44;96338.72;;;7.45;100.00
12624;BME280;6377;42.836;23.998;2023-02-28T10:58:21;96312.59;;;7.24;100.00
12624;BME280;6377;42.836;23.998;2023-02-28T11:00:49;96324.72;;;7.45;100.00
12624;BME280;6377;42.836;23.998;2023-02-28T11:03:29;96162.75;;;6.40;100.00
12624;BME280;6377;42.836;23.998;2023-02-28T11:06:04;96289.19;;;7.12;100.00
12624;BME280;6377;42.836;23.998;2023-02-28T11:08:32;96301.63;;;7.29;100.00
12624;BME280;6377;42.836;23.998;2023-02-28T11:11:04;96346.97;;;7.60;100.00
12624;BME280;6377;42.836;23.998;2023-02-28T11:13:34;96160.94;;;6.40;100.00
12624;BME280;6377;42.836;23.998;2023-02-28T11:16:05;96312.38;;;7.45;100.00
12624;BME280;6377;42.836;23.998;2023-02-28T11:18:40;96134.59;;;6.13;100.00
12624;BME280;6377;42.836;23.998;2023-02-28T11:21:18;96271.34;;;7.15;100.00
12624;BME280;6377;42.836;23.998;2023-02-28T11:23:49;96159.56;;;6.46;100.00
12624;BME280;6377;42.836;23.998;2023-02-28T11:26:36;96221.69;;;6.93;100.00
12624;BME280;6377;42.836;23.998;2023-02-28T11:29:11;96258.66;;;7.01;100.00
12624;BME280;6377;42.836;23.998;2023-02-28T11:31:40;96335.72;;;7.67;100.00
12624;BME280;6377;42.836;23.998;2023-02-28T11:34:27;96169.19;;;6.64;100.00
12624;BME280;6377;42.836;23.998;2023-02-28T11:36:58;96123.47;;;6.48;100.00
12624;BME280;6377;42.836;23.998;2023-02-28T11:39:27;96291.63;;;7.69;100.00
12624;BME280;6377;42.836;23.998;2023-02-28T11:42:22;96274.81;;;7.80;100.00
12624;BME280;6377;42.836;23.998;2023-02-28T11:45:02;96347.53;;;8.18;100.00
12624;BME280;6377;42.836;23.998;2023-02-28T11:47:40;96142.97;;;6.92;100.00
12624;BME280;6377;42.836;23.998;2023-02-28T11:50:21;96159.50;;;7.02;100.00
12624;BME280;6377;42.836;23.998;2023-02-28T11:53:01;96368.34;;;8.21;100.00
12624;BME280;6377;42.836;23.998;2023-02-28T11:55:35;96215.59;;;7.39;100.00
12624;BME280;6377;42.836;23.998;2023-02-28T11:58:33;96302.34;;;7.95;100.00
12624;BME280;6377;42.836;23.998;2023-02-28T12:01:18;96121.84;;;6.84;100.00
12624;BME280;6377;42.836;23.998;2023-02-28T12:04:03;96202.19;;;7.32;100.00
12624;BME280;6377;42.836;23.998;2023-02-28T12:06:40;96268.81;;;7.87;100.00
12624;BME280;6377;42.836;23.998;2023-02-28T12:09:23;96315.25;;;8.16;100.00
12624;BME280;6377;42.836;23.998;2023-02-28T12:12:03;96353.88;;;8.25;100.00
12624;BME280;6377;42.836;23.998;2023-02-28T12:14:56;96345.00;;;7.99;100.00
12624;BME280;6377;42.836;23.998;2023-02-28T12:17:38;96367.81;;;8.08;100.00
12624;BME280;6377;42.836;23.998;2023-02-28T12:20:21;96341.25;;;8.01;100.00
12624;BME280;6377;42.836;23.998;2023-02-28T12:22:57;96340.75;;;7.88;100.00
12624;BME280;6377;42.836;23.998;2023-02-28T12:25:47;96349.78;;;7.85;100.00
12624;BME280;6377;42.836;23.998;2023-02-28T12:28:20;96367.41;;;7.75;100.00
12624;BME280;6377;42.836;23.998;2023-02-28T12:30:53;96234.56;;;6.96;100.00
12624;BME280;6377;42.836;23.998;2023-02-28T12:33:26;96364.47;;;7.51;100.00
12624;BME280;6377;42.836;23.998;2023-02-28T12:35:57;96364.84;;;7.56;100.00
12624;BME280;6377;42.836;23.998;2023-02-28T12:38:27;96360.84;;;7.52;100.00
12624;BME280;6377;42.836;23.998;2023-02-28T12:41:00;96165.94;;;6.24;100.00
12624;BME280;6377;42.836;23.998;2023-02-28T12:43:33;96184.06;;;6.27;100.00
12624;BME280;6377;42.836;23.998;2023-02-28T12:46:09;96328.59;;;7.31;100.00
12624;BME280;6377;42.836;23.998;2023-02-28T12:48:40;96240.81;;;6.76;100.00
12624;BME280;6377;42.836;23.998;2023-02-28T12:51:09;96260.75;;;6.88;100.00
12624;BME280;6377;42.836;23.998;2023-02-28T12:53:49;96302.72;;;7.36;100.00
12624;BME280;6377;42.836;23.998;2023-02-28T12:56:28;96325.09;;;7.50;100.00
12624;BME280;6377;42.836;23.998;2023-02-28T12:59:02;96324.31;;;7.40;100.00
12624;BME280;6377;42.836;23.998;2023-02-28T13:02:02;96358.72;;;7.65;100.00
12624;BME280;6377;42.836;23.998;2023-02-28T13:04:52;96329.88;;;7.27;100.00
12624;BME280;6377;42.836;23.998;2023-02-28T13:10:39;96230.22;;;6.58;100.00
12624;BME280;6377;42.836;23.998;2023-02-28T13:13:14;96249.66;;;6.85;100.00
12624;BME280;6377;42.836;23.998;2023-02-28T13:15:57;96337.16;;;7.52;100.00
12624;BME280;6377;42.836;23.998;2023-02-28T13:18:33;96338.00;;;7.43;100.00
12624;BME280;6377;42.836;23.998;2023-02-28T13:21:02;96293.53;;;7.03;100.00
12624;BME280;6377;42.836;23.998;2023-02-28T13:23:57;96343.13;;;7.54;100.00
12624;BME280;6377;42.836;23.998;2023-02-28T13:29:30;96338.16;;;7.42;100.00
12624;BME280;6377;42.836;23.998;2023-02-28T13:35:35;96342.66;;;7.59;100.00
12624;BME280;6377;42.836;23.998;2023-02-28T13:38:32;96318.50;;;7.36;100.00
12624;BME280;6377;42.836;23.998;2023-02-28T13:44:06;96325.75;;;7.15;100.00
12624;BME280;6377;42.836;23.998;2023-02-28T13:46:38;96342.03;;;7.28;100.00
12624;BME280;6377;42.836;23.998;2023-02-28T13:49:26;96330.44;;;7.21;100.00
12624;BME280;6377;42.836;23.998;2023-02-28T13:52:03;96342.34;;;7.25;100.00
12624;BME280;6377;42.836;23.998;2023-02-28T13:57:35;96315.56;;;6.93;100.00
12624;BME280;6377;42.836;23.998;2023-02-28T14:00:20;96343.88;;;7.08;100.00